Time;durP1;ratioP1;P1;durP2;ratioP2;P2;SDS_P1;SDS_P2;PMS_P1;PMS_P2;Temp;Humidity;BMP_temperature;BMP_pressure;BME280_temperature;BME280_humidity;BME280_pressure;Samples;Min_cycle;Max_cycle;Signal;HPM_P1;HPM_P2
2022/10/21 00:01:00;;;;;;;22.23;10.67;;;1.70;99.90;;;;;;4192806;28;20282;-62
2022/10/21 00:03:01;;;;;;;22.77;10.43;;;1.70;99.90;;;;;;4192668;28;20281;-62
2022/10/21 00:05:03;;;;;;;20.80;10.33;;;1.80;99.90;;;;;;4193549;28;20261;-62
2022/10/21 00:07:04;;;;;;;20.97;9.90;;;1.70;99.90;;;;;;4180372;28;20611;-62
2022/10/21 00:09:05;;;;;;;20.80;9.60;;;1.80;99.90;;;;;;4178142;28;20302;-62
2022/10/21 00:11:08;;;;;;;23.00;10.93;;;1.80;99.90;;;;;;4189432;28;20692;-62
2022/10/21 00:13:10;;;;;;;19.97;9.90;;;1.80;99.90;;;;;;4191820;28;20692;-61
2022/10/21 00:15:11;;;;;;;17.90;9.80;;;1.70;99.90;;;;;;4187856;28;20281;-63
2022/10/21 00:17:12;;;;;;;20.43;10.20;;;1.70;99.90;;;;;;4191249;28;20322;-62
2022/10/21 00:19:13;;;;;;;20.47;11.60;;;1.70;99.90;;;;;;4179947;28;20392;-63
2022/10/21 00:21:18;;;;;;;23.90;9.53;;;1.60;99.90;;;;;;4193048;28;20339;-62
2022/10/21 00:23:19;;;;;;;17.53;8.83;;;1.60;99.90;;;;;;4194425;28;20277;-62
2022/10/21 00:25:20;;;;;;;19.13;8.70;;;1.60;99.90;;;;;;4193472;28;21715;-62
2022/10/21 00:27:21;;;;;;;19.03;10.07;;;1.60;99.90;;;;;;4193763;28;20323;-63
2022/10/21 00:29:22;;;;;;;17.33;9.10;;;1.60;99.90;;;;;;4184880;28;20842;-61
2022/10/21 00:31:24;;;;;;;18.27;8.57;;;1.70;99.90;;;;;;4185657;28;20269;-63
2022/10/21 00:33:27;;;;;;;18.57;9.33;;;1.70;99.90;;;;;;4187407;28;20315;-62
2022/10/21 00:35:32;;;;;;;14.93;8.27;;;1.70;99.90;;;;;;4180059;28;20320;-63
2022/10/21 00:37:33;;;;;;;15.30;8.87;;;1.60;99.90;;;;;;4182156;28;20278;-62
2022/10/21 00:39:34;;;;;;;23.80;8.63;;;1.60;99.90;;;;;;4177867;28;20270;-63
2022/10/21 00:41:35;;;;;;;18.87;9.17;;;1.60;99.90;;;;;;4181248;28;20262;-61
2022/10/21 00:43:57;;;;;;;15.07;8.03;;;1.50;99.90;;;;;;4182149;28;20275;-62
2022/10/21 00:46:03;;;;;;;16.23;7.97;;;1.50;99.90;;;;;;4195972;28;20323;-62
2022/10/21 00:48:13;;;;;;;16.07;8.27;;;1.50;99.90;;;;;;4191775;28;20304;-61
2022/10/21 00:50:40;;;;;;;17.55;8.82;;;1.50;99.90;;;;;;4181157;28;20359;-62
2022/10/21 00:52:41;;;;;;;18.63;8.53;;;1.60;99.90;;;;;;4180259;28;20079;-62
2022/10/21 00:54:43;;;;;;;16.60;8.30;;;1.50;99.90;;;;;;4180414;28;20270;-62
2022/10/21 00:56:46;;;;;;;13.73;7.83;;;1.50;99.90;;;;;;4187219;28;20273;-62
2022/10/21 00:58:48;;;;;;;14.07;7.40;;;1.50;99.90;;;;;;4184378;28;20269;-63
2022/10/21 01:00:50;;;;;;;18.80;6.63;;;1.40;99.90;;;;;;4206481;28;20281;-61
2022/10/21 01:02:52;;;;;;;11.33;5.50;;;1.40;99.90;;;;;;4197819;28;20368;-62
2022/10/21 01:04:57;;;;;;;12.67;6.07;;;1.30;99.90;;;;;;4196252;28;20281;-61
2022/10/21 01:07:00;;;;;;;10.30;5.80;;;1.20;99.90;;;;;;4210349;28;20682;-63
2022/10/21 01:09:02;;;;;;;16.93;6.93;;;1.20;99.90;;;;;;4210439;28;20752;-62
2022/10/21 01:11:09;;;;;;;18.30;7.77;;;1.10;99.90;;;;;;4200750;28;20346;-62
2022/10/21 01:13:28;;;;;;;15.17;7.97;;;1.10;99.90;;;;;;4208844;28;20272;-62
2022/10/21 01:15:41;;;;;;;21.93;8.50;;;1.10;99.90;;;;;;4211522;28;20273;-61
2022/10/21 01:17:55;;;;;;;17.70;8.17;;;1.20;99.90;;;;;;4209383;28;20268;-61
2022/10/21 01:20:15;;;;;;;17.60;7.93;;;1.20;99.90;;;;;;4199156;28;21319;-61
2022/10/21 01:22:29;;;;;;;19.43;9.17;;;1.20;99.90;;;;;;4196075;28;20258;-62
2022/10/21 01:24:56;;;;;;;17.17;7.70;;;1.20;99.90;;;;;;4197146;28;20274;-62
2022/10/21 01:27:28;;;;;;;15.33;8.17;;;1.20;99.90;;;;;;4176669;28;20274;-64
2022/10/21 01:30:06;;;;;;;18.53;7.23;;;1.10;99.90;;;;;;4178313;28;21050;-62
2022/10/21 01:32:10;;;;;;;21.63;8.40;;;1.10;99.90;;;;;;4204248;28;20281;-63
2022/10/21 01:34:38;;;;;;;14.13;6.70;;;1.10;99.90;;;;;;4213095;28;20782;-62
2022/10/21 01:37:02;;;;;;;12.27;5.70;;;1.00;99.90;;;;;;4213647;28;20646;-62
2022/10/21 01:39:12;;;;;;;12.60;5.70;;;0.90;99.90;;;;;;4210793;28;20814;-61
2022/10/21 01:41:27;;;;;;;12.30;5.97;;;0.80;99.90;;;;;;4202500;28;20336;-62
2022/10/21 01:43:31;;;;;;;12.80;6.03;;;0.80;99.90;;;;;;4211876;28;20282;-63
2022/10/21 01:45:47;;;;;;;12.77;6.20;;;0.70;99.90;;;;;;4213801;28;20794;-61
2022/10/21 01:47:56;;;;;;;15.00;7.93;;;0.60;99.90;;;;;;4210964;28;20334;-61
2022/10/21 01:50:10;;;;;;;12.17;6.17;;;0.70;99.90;;;;;;4201077;28;20281;-62
2022/10/21 01:52:12;;;;;;;11.17;5.77;;;0.70;99.90;;;;;;4195723;28;20262;-62
2022/10/21 01:54:20;;;;;;;12.17;6.27;;;0.70;99.90;;;;;;4196825;28;20257;-62
2022/10/21 01:56:22;;;;;;;13.33;6.83;;;0.70;99.90;;;;;;4195411;28;20269;-61
2022/10/21 01:58:28;;;;;;;11.73;6.33;;;0.70;99.90;;;;;;4210335;28;20269;-62
2022/10/21 02:00:31;;;;;;;11.23;6.67;;;0.70;99.90;;;;;;4208521;28;20331;-62
2022/10/21 02:02:38;;;;;;;9.20;5.57;;;0.70;99.90;;;;;;4200864;28;20277;-62
2022/10/21 02:04:41;;;;;;;16.30;7.13;;;0.70;99.90;;;;;;4193713;28;20411;-64
2022/10/21 02:06:43;;;;;;;13.27;6.83;;;0.70;99.90;;;;;;4212260;28;20326;-62
2022/10/21 02:08:44;;;;;;;9.70;5.57;;;0.70;99.90;;;;;;4210033;28;20273;-63
2022/10/21 02:10:48;;;;;;;13.90;7.17;;;0.70;99.90;;;;;;4205327;28;20304;-62
2022/10/21 02:12:52;;;;;;;11.03;5.67;;;0.60;99.90;;;;;;4203865;28;20342;-62
2022/10/21 02:14:56;;;;;;;12.97;6.50;;;0.60;99.90;;;;;;4212110;28;20261;-62
2022/10/21 02:16:59;;;;;;;12.03;6.70;;;0.60;99.90;;;;;;4209249;28;20756;-62
2022/10/21 02:19:00;;;;;;;13.90;6.17;;;0.50;99.90;;;;;;4206075;28;20272;-62
2022/10/21 02:21:07;;;;;;;9.13;5.50;;;0.40;99.90;;;;;;4195073;28;20273;-62
2022/10/21 02:23:13;;;;;;;16.23;9.03;;;0.40;99.90;;;;;;4203498;28;20265;-62
2022/10/21 02:25:20;;;;;;;18.30;9.47;;;0.40;99.90;;;;;;4204292;28;20269;-62
2022/10/21 02:27:22;;;;;;;18.07;9.60;;;0.30;99.90;;;;;;4201034;28;20322;-62
2022/10/21 02:29:28;;;;;;;17.73;10.27;;;0.30;99.90;;;;;;4212748;28;20322;-62
2022/10/21 02:32:04;;;;;;;14.47;8.47;;;0.30;99.90;;;;;;4212168;28;20261;-62
2022/10/21 02:34:11;;;;;;;23.70;8.17;;;0.20;99.90;;;;;;4208900;28;20338;-62
2022/10/21 02:36:32;;;;;;;14.00;6.93;;;0.20;99.90;;;;;;4194828;28;20664;-62
2022/10/21 02:38:39;;;;;;;;;;;0.10;99.90;;;;;;4198344;28;20300;-63
2022/10/21 02:40:48;;;;;;;14.03;6.63;;;0.00;99.90;;;;;;4176586;28;19912;-62
2022/10/21 02:42:55;;;;;;;14.13;7.40;;;0.00;99.90;;;;;;4182252;28;20270;-64
2022/10/21 02:44:56;;;;;;;17.10;7.17;;;0.00;99.90;;;;;;4194684;28;20583;-63
2022/10/21 02:46:57;;;;;;;12.47;6.57;;;0.00;99.90;;;;;;4195861;28;20311;-63
2022/10/21 02:48:58;;;;;;;14.83;7.83;;;0.00;99.90;;;;;;4199364;28;20277;-62
2022/10/21 02:51:02;;;;;;;12.37;6.80;;;0.00;99.90;;;;;;4210756;28;20289;-63
2022/10/21 02:53:03;;;;;;;13.93;6.83;;;0.10;99.90;;;;;;4210798;28;20273;-62
2022/10/21 02:55:05;;;;;;;16.27;8.37;;;0.10;99.90;;;;;;4212200;28;20322;-62
2022/10/21 02:57:06;;;;;;;14.93;7.43;;;0.20;99.90;;;;;;4210311;28;20337;-62
2022/10/21 02:59:08;;;;;;;18.40;7.53;;;0.10;99.90;;;;;;4211996;28;20276;-63
2022/10/21 03:01:09;;;;;;;21.03;8.30;;;0.10;99.90;;;;;;4209919;28;20338;-63
2022/10/21 03:03:10;;;;;;;18.97;7.53;;;0.00;99.90;;;;;;4210376;28;20288;-63
2022/10/21 03:05:12;;;;;;;20.70;9.17;;;0.00;99.90;;;;;;4209831;28;20655;-62
2022/10/21 03:07:13;;;;;;;15.53;8.33;;;-0.10;99.90;;;;;;4195171;28;20261;-63
2022/10/21 03:09:14;;;;;;;20.30;9.10;;;-0.20;99.90;;;;;;4210308;28;20310;-63
2022/10/21 03:11:15;;;;;;;18.20;8.57;;;-0.20;99.90;;;;;;4209635;28;20706;-63
2022/10/21 03:13:17;;;;;;;15.13;8.60;;;-0.20;99.90;;;;;;4210548;28;20268;-63
2022/10/21 03:15:18;;;;;;;19.03;8.93;;;-0.20;99.90;;;;;;4211171;28;20264;-63
2022/10/21 03:17:19;;;;;;;25.57;9.47;;;-0.30;99.90;;;;;;4178380;28;20286;-62
2022/10/21 03:19:20;;;;;;;21.50;9.23;;;-0.30;99.90;;;;;;4197836;28;20318;-63
2022/10/21 03:21:21;;;;;;;14.33;8.37;;;-0.30;99.90;;;;;;4203316;28;20272;-62
2022/10/21 03:23:22;;;;;;;24.90;9.27;;;-0.40;99.90;;;;;;4209271;28;20272;-63
2022/10/21 03:25:23;;;;;;;18.47;9.97;;;-0.40;99.90;;;;;;4211991;28;20306;-62
2022/10/21 03:27:25;;;;;;;20.83;10.40;;;-0.50;99.90;;;;;;4208315;28;22286;-64
2022/10/21 03:29:26;;;;;;;25.33;12.03;;;-0.50;99.90;;;;;;4194876;28;20717;-63
2022/10/21 03:31:28;;;;;;;24.00;10.40;;;-0.60;99.90;;;;;;4193578;28;20293;-62
2022/10/21 03:33:29;;;;;;;24.67;12.40;;;-0.60;99.90;;;;;;4196258;28;20315;-63
2022/10/21 03:35:30;;;;;;;24.43;10.97;;;-0.60;99.90;;;;;;4202619;28;20256;-64
2022/10/21 03:37:31;;;;;;;19.67;10.90;;;-0.60;99.90;;;;;;4209714;28;20318;-65
2022/10/21 03:39:32;;;;;;;26.87;11.90;;;-0.60;99.90;;;;;;4209176;28;20314;-64
2022/10/21 03:41:33;;;;;;;26.73;11.80;;;-0.60;99.90;;;;;;4208838;28;20329;-65
2022/10/21 03:43:34;;;;;;;21.57;11.57;;;-0.60;99.90;;;;;;4208747;28;20248;-63
2022/10/21 03:45:35;;;;;;;25.60;11.30;;;-0.60;99.90;;;;;;4210729;28;20722;-64
2022/10/21 03:47:37;;;;;;;24.93;11.40;;;-0.60;99.90;;;;;;4205449;28;20266;-63
2022/10/21 03:49:38;;;;;;;27.73;11.90;;;-0.60;99.90;;;;;;4195961;28;20339;-62
2022/10/21 03:51:39;;;;;;;31.13;14.57;;;-0.70;99.90;;;;;;4194603;28;20261;-63
2022/10/21 03:53:40;;;;;;;26.53;13.87;;;-0.70;99.90;;;;;;4193428;28;20262;-61
2022/10/21 03:55:41;;;;;;;22.83;11.00;;;-0.80;99.90;;;;;;4205299;28;20655;-62
2022/10/21 03:57:42;;;;;;;19.77;10.30;;;-0.80;99.90;;;;;;4198127;28;20403;-63
2022/10/21 03:59:43;;;;;;;25.60;11.00;;;-0.80;99.90;;;;;;4194604;28;20429;-63
2022/10/21 04:01:45;;;;;;;23.53;11.33;;;-0.90;99.90;;;;;;4176646;28;20282;-62
2022/10/21 04:03:46;;;;;;;20.40;10.77;;;-1.00;99.90;;;;;;4211152;28;20732;-64
2022/10/21 04:05:47;;;;;;;17.67;10.10;;;-1.00;99.90;;;;;;4207700;28;20648;-63
2022/10/21 04:07:48;;;;;;;19.87;9.40;;;-0.90;99.90;;;;;;4210162;28;20321;-61
2022/10/21 04:09:49;;;;;;;21.10;10.27;;;-1.00;99.90;;;;;;4210503;28;21015;-61
2022/10/21 04:11:50;;;;;;;19.77;10.80;;;-1.00;99.90;;;;;;4209695;28;20809;-63
2022/10/21 04:13:51;;;;;;;17.27;9.67;;;-1.00;99.90;;;;;;4209421;28;20264;-62
2022/10/21 04:16:01;;;;;;;25.57;11.23;;;-1.00;99.90;;;;;;4189787;28;20315;-62
2022/10/21 04:18:02;;;;;;;20.60;11.30;;;-1.00;99.90;;;;;;4210641;28;20253;-62
2022/10/21 04:20:03;;;;;;;23.40;11.53;;;-1.00;99.90;;;;;;4190893;28;20323;-62
2022/10/21 04:22:05;;;;;;;21.63;10.87;;;-1.00;99.90;;;;;;4177651;28;20288;-61
2022/10/21 04:24:07;;;;;;;21.13;10.43;;;-1.00;99.90;;;;;;4176094;28;20376;-62
2022/10/21 04:26:08;;;;;;;18.13;10.13;;;-1.00;99.90;;;;;;4177821;28;20725;-61
2022/10/21 04:28:10;;;;;;;22.00;11.27;;;-1.00;99.90;;;;;;4175808;28;20262;-61
2022/10/21 04:30:11;;;;;;;23.43;11.03;;;-1.00;99.90;;;;;;4177605;28;20298;-61
2022/10/21 04:32:12;;;;;;;29.93;13.37;;;-1.00;99.90;;;;;;4178109;28;20870;-61
2022/10/21 04:34:13;;;;;;;26.33;15.50;;;-1.00;99.90;;;;;;4177313;28;20278;-62
2022/10/21 04:36:14;;;;;;;32.83;16.67;;;-1.00;99.90;;;;;;4191650;28;20693;-62
2022/10/21 04:38:15;;;;;;;33.63;17.07;;;-1.00;99.90;;;;;;4194269;28;20336;-63
2022/10/21 04:40:16;;;;;;;30.47;16.30;;;-1.00;99.90;;;;;;4193519;28;20265;-62
2022/10/21 04:42:18;;;;;;;31.27;16.83;;;-0.90;99.90;;;;;;4194840;28;20311;-62
2022/10/21 04:44:19;;;;;;;35.43;18.23;;;-0.90;99.90;;;;;;4196521;28;20687;-62
2022/10/21 04:46:20;;;;;;;36.60;15.83;;;-0.80;99.90;;;;;;4195660;28;20280;-63
2022/10/21 04:48:22;;;;;;;27.83;15.17;;;-0.80;99.90;;;;;;4207572;28;20338;-62
2022/10/21 04:50:23;;;;;;;35.93;15.87;;;-0.70;99.90;;;;;;4192453;28;20847;-63
2022/10/21 04:52:24;;;;;;;31.80;15.50;;;-0.60;99.90;;;;;;4194190;28;20326;-63
2022/10/21 04:54:25;;;;;;;30.50;16.27;;;-0.60;99.90;;;;;;4204763;28;20698;-62
2022/10/21 04:56:26;;;;;;;41.00;18.90;;;-0.60;99.90;;;;;;4192407;28;20273;-63
2022/10/21 04:58:27;;;;;;;41.13;20.43;;;-0.70;99.90;;;;;;4208395;28;20280;-60
2022/10/21 05:00:28;;;;;;;38.33;20.60;;;-0.70;99.90;;;;;;4207518;28;20293;-62
2022/10/21 05:02:29;;;;;;;37.73;20.53;;;-0.80;99.90;;;;;;4192177;28;20774;-63
2022/10/21 05:04:30;;;;;;;32.63;14.80;;;-0.80;99.90;;;;;;4194084;28;20319;-62
2022/10/21 05:06:32;;;;;;;32.43;17.23;;;-0.80;99.90;;;;;;4193003;28;20382;-62
2022/10/21 05:08:33;;;;;;;28.90;15.87;;;-0.70;99.90;;;;;;4193794;28;20269;-62
2022/10/21 05:10:34;;;;;;;35.37;18.47;;;-0.60;99.90;;;;;;4193007;28;20347;-62
2022/10/21 05:12:35;;;;;;;33.93;17.60;;;-0.50;99.90;;;;;;4192778;28;20311;-59
2022/10/21 05:14:36;;;;;;;37.07;19.13;;;-0.20;99.90;;;;;;4193334;28;20775;-61
2022/10/21 05:16:37;;;;;;;38.90;18.63;;;0.00;99.90;;;;;;4195204;28;20331;-61
2022/10/21 05:18:38;;;;;;;42.73;18.60;;;0.30;99.90;;;;;;4196861;28;20323;-61
2022/10/21 05:20:40;;;;;;;35.37;17.73;;;0.50;99.90;;;;;;4194741;28;20281;-62
2022/10/21 05:22:41;;;;;;;42.70;18.57;;;0.80;99.90;;;;;;4196333;28;20679;-61
2022/10/21 05:24:42;;;;;;;31.20;16.27;;;1.10;99.90;;;;;;4195883;28;20266;-62
2022/10/21 05:26:43;;;;;;;31.87;16.27;;;1.40;99.90;;;;;;4199500;28;20269;-62
2022/10/21 05:28:44;;;;;;;33.20;15.57;;;1.70;99.90;;;;;;4210805;28;20310;-64
2022/10/21 05:30:45;;;;;;;35.97;13.80;;;2.00;99.90;;;;;;4213531;28;20277;-61
2022/10/21 05:32:46;;;;;;;31.47;14.30;;;2.10;99.90;;;;;;4210407;28;20276;-63
2022/10/21 05:34:48;;;;;;;26.97;13.97;;;2.30;99.90;;;;;;4210475;28;20318;-64
2022/10/21 05:36:49;;;;;;;26.30;12.27;;;2.60;99.90;;;;;;4211805;28;20265;-63
2022/10/21 05:38:50;;;;;;;35.70;14.57;;;2.80;99.90;;;;;;4211061;28;20334;-64
2022/10/21 05:40:51;;;;;;;25.90;12.63;;;3.00;99.90;;;;;;4192610;28;20269;-64
2022/10/21 05:42:53;;;;;;;27.90;14.50;;;3.10;99.90;;;;;;4196318;28;20311;-62
2022/10/21 05:44:54;;;;;;;34.67;12.90;;;3.30;99.90;;;;;;4195679;28;20668;-63
2022/10/21 05:46:55;;;;;;;24.77;11.70;;;3.50;99.90;;;;;;4195167;28;20261;-64
2022/10/21 05:48:56;;;;;;;23.07;10.87;;;3.60;99.90;;;;;;4195803;28;20334;-63
2022/10/21 05:50:57;;;;;;;31.07;11.07;;;3.90;99.90;;;;;;4195678;28;20721;-63
2022/10/21 05:52:58;;;;;;;26.40;10.40;;;4.20;99.90;;;;;;4196707;28;20737;-65
2022/10/21 05:54:59;;;;;;;22.07;9.50;;;4.50;99.90;;;;;;4183673;28;20126;-63
2022/10/21 05:57:01;;;;;;;28.03;10.27;;;4.70;99.90;;;;;;4195611;28;20402;-63
2022/10/21 05:59:02;;;;;;;23.23;9.57;;;4.90;99.90;;;;;;4194640;28;20374;-64
2022/10/21 06:01:03;;;;;;;23.87;9.97;;;5.00;99.90;;;;;;4201870;28;20045;-62
2022/10/21 06:03:04;;;;;;;17.20;9.27;;;5.10;99.90;;;;;;4195770;28;20077;-62
2022/10/21 06:05:06;;;;;;;15.77;9.27;;;5.20;99.90;;;;;;4193575;28;20157;-62
2022/10/21 06:07:08;;;;;;;14.93;9.37;;;5.30;99.90;;;;;;4195236;28;20028;-63
2022/10/21 06:09:09;;;;;;;19.73;9.47;;;5.50;99.90;;;;;;4195271;28;20029;-64
2022/10/21 06:11:14;;;;;;;26.63;9.87;;;5.50;99.90;;;;;;4195064;28;20442;-63
2022/10/21 06:13:15;;;;;;;38.30;12.90;;;5.50;99.90;;;;;;4193522;28;20052;-63
2022/10/21 06:15:17;;;;;;;26.30;11.50;;;5.40;99.90;;;;;;4194993;28;20028;-63
2022/10/21 06:17:18;;;;;;;29.60;12.87;;;5.20;99.90;;;;;;4194796;28;20032;-65
2022/10/21 06:19:19;;;;;;;33.93;13.00;;;5.20;99.90;;;;;;4195171;28;20043;-62
2022/10/21 06:21:20;;;;;;;34.87;12.43;;;5.40;99.90;;;;;;4185328;28;20041;-64
2022/10/21 06:23:22;;;;;;;23.83;12.00;;;5.80;99.90;;;;;;4181549;28;20091;-63
2022/10/21 06:25:23;;;;;;;29.23;11.30;;;6.20;99.90;;;;;;4185086;28;20082;-63
2022/10/21 06:27:24;;;;;;;30.00;14.33;;;6.50;99.90;;;;;;4178014;28;20037;-64
2022/10/21 06:29:26;;;;;;;27.77;12.37;;;6.80;99.90;;;;;;4192500;28;20537;-62
2022/10/21 06:31:27;;;;;;;26.40;11.73;;;6.90;99.90;;;;;;4195776;28;20037;-63
2022/10/21 06:33:28;;;;;;;25.17;12.40;;;7.10;99.90;;;;;;4194869;28;20593;-63
2022/10/21 06:35:29;;;;;;;25.60;11.13;;;7.60;99.90;;;;;;4195360;28;20461;-64
2022/10/21 06:37:30;;;;;;;23.83;10.93;;;7.80;99.90;;;;;;4192377;28;20036;-62
2022/10/21 06:39:32;;;;;;;25.63;12.23;;;7.80;99.90;;;;;;4191370;28;20045;-65
2022/10/21 06:41:33;;;;;;;31.70;12.77;;;7.90;99.90;;;;;;4194597;28;20032;-62
2022/10/21 06:43:34;;;;;;;24.07;12.07;;;7.60;99.90;;;;;;4194298;28;20051;-63
2022/10/21 06:45:36;;;;;;;24.33;12.23;;;7.60;99.90;;;;;;4182347;28;20025;-63
2022/10/21 06:47:37;;;;;;;28.67;12.47;;;7.50;99.90;;;;;;4183493;28;20578;-65
2022/10/21 06:49:38;;;;;;;26.40;12.87;;;7.30;99.90;;;;;;4212079;28;20032;-65
2022/10/21 06:51:39;;;;;;;33.60;12.60;;;7.20;99.90;;;;;;4199798;28;20048;-65
2022/10/21 06:53:41;;;;;;;27.10;11.93;;;7.30;99.90;;;;;;4185527;28;20102;-64
2022/10/21 06:55:42;;;;;;;26.23;12.27;;;7.60;99.90;;;;;;4184934;28;20033;-63
2022/10/21 06:57:44;;;;;;;22.87;11.77;;;7.70;99.90;;;;;;4178251;28;20029;-63
2022/10/21 06:59:46;;;;;;;21.87;11.60;;;7.70;99.90;;;;;;4160147;28;20115;-63
2022/10/21 07:01:47;;;;;;;20.17;10.73;;;7.90;99.90;;;;;;4180028;28;20538;-63
2022/10/21 07:03:49;;;;;;;24.33;11.77;;;8.40;99.90;;;;;;4192051;28;20032;-64
2022/10/21 07:05:57;;;;;;;26.43;12.30;;;8.50;99.90;;;;;;4178640;28;20491;-63
2022/10/21 07:07:58;;;;;;;21.57;11.63;;;8.70;99.90;;;;;;4177249;28;20037;-63
2022/10/21 07:09:59;;;;;;;22.33;12.07;;;8.70;99.90;;;;;;4178656;28;20071;-63
2022/10/21 07:12:00;;;;;;;23.40;12.43;;;9.00;99.90;;;;;;4176545;28;20049;-63
2022/10/21 07:14:02;;;;;;;25.43;11.93;;;9.10;99.90;;;;;;4180029;28;20036;-63
2022/10/21 07:16:07;;;;;;;23.47;11.60;;;9.10;99.90;;;;;;4187672;28;20037;-64
2022/10/21 07:18:08;;;;;;;34.00;13.43;;;9.00;99.90;;;;;;4179431;28;20029;-63
2022/10/21 07:20:09;;;;;;;28.73;13.73;;;8.70;99.90;;;;;;4177235;28;20029;-63
2022/10/21 07:22:11;;;;;;;45.07;19.07;;;8.30;99.90;;;;;;4176826;28;20029;-64
2022/10/21 07:24:13;;;;;;;40.30;19.97;;;8.10;99.90;;;;;;4177516;28;20025;-63
2022/10/21 07:26:14;;;;;;;43.33;19.90;;;7.90;99.90;;;;;;4177491;28;20101;-65
2022/10/21 07:28:15;;;;;;;35.30;17.27;;;7.60;99.90;;;;;;4177934;28;20040;-64
2022/10/21 07:30:16;;;;;;;30.03;15.00;;;7.70;99.90;;;;;;4177435;28;20090;-65
2022/10/21 07:32:17;;;;;;;28.77;13.77;;;7.40;99.90;;;;;;4178256;28;20110;-64
2022/10/21 07:34:19;;;;;;;29.00;13.77;;;6.90;99.90;;;;;;4176954;28;20037;-64
2022/10/21 07:36:24;;;;;;;27.23;13.97;;;6.70;99.90;;;;;;4178398;28;20029;-63
2022/10/21 07:38:25;;;;;;;31.03;14.37;;;6.60;99.90;;;;;;4177063;28;20045;-63
2022/10/21 07:40:29;;;;;;;28.70;14.17;;;6.70;99.90;;;;;;4178310;28;20514;-62
2022/10/21 07:42:30;;;;;;;26.60;12.87;;;6.60;99.90;;;;;;4176961;28;20094;-63
2022/10/21 07:44:32;;;;;;;26.20;12.93;;;6.60;99.90;;;;;;4178364;28;20028;-63
2022/10/21 07:46:34;;;;;;;38.43;17.20;;;6.50;99.90;;;;;;4193326;28;20094;-63
2022/10/21 07:48:35;;;;;;;32.03;13.83;;;6.40;99.90;;;;;;4194280;28;20040;-63
2022/10/21 07:50:36;;;;;;;54.17;15.90;;;6.40;99.90;;;;;;4193541;28;20078;-61
2022/10/21 07:52:44;;;;;;;29.27;14.03;;;6.60;99.90;;;;;;4194414;28;20070;-63
2022/10/21 07:54:45;;;;;;;39.93;15.10;;;6.80;99.90;;;;;;4192217;28;20078;-62
2022/10/21 07:56:51;;;;;;;25.60;13.03;;;6.90;99.90;;;;;;4194231;28;21495;-62
2022/10/21 07:58:52;;;;;;;37.23;15.77;;;6.80;99.90;;;;;;4185177;28;20032;-62
2022/10/21 08:01:00;;;;;;;30.77;14.57;;;6.60;99.90;;;;;;4191676;28;20443;-62
2022/10/21 08:03:01;;;;;;;29.77;13.87;;;6.60;99.90;;;;;;4182023;28;20045;-62
2022/10/21 08:05:03;;;;;;;21.97;11.10;;;6.70;99.90;;;;;;4188322;28;20439;-62
2022/10/21 08:07:05;;;;;;;25.23;13.70;;;6.80;99.90;;;;;;4177543;28;20024;-62
2022/10/21 08:09:06;;;;;;;25.70;12.73;;;6.70;99.90;;;;;;4180889;28;20435;-62
2022/10/21 08:11:08;;;;;;;25.57;12.53;;;6.80;99.90;;;;;;4182372;28;20403;-63
2022/10/21 08:13:09;;;;;;;21.13;12.23;;;6.80;99.90;;;;;;4175460;28;20037;-62
2022/10/21 08:15:10;;;;;;;18.47;10.33;;;6.90;99.90;;;;;;4177928;28;20032;-61
2022/10/21 08:17:11;;;;;;;20.97;11.97;;;7.00;99.90;;;;;;4175677;28;20120;-64
2022/10/21 08:19:17;;;;;;;17.70;10.67;;;7.10;99.90;;;;;;4183687;28;20032;-63
2022/10/21 08:21:18;;;;;;;17.23;9.90;;;7.20;99.90;;;;;;4179246;28;20028;-62
2022/10/21 08:23:21;;;;;;;20.17;10.10;;;7.30;99.90;;;;;;4177542;28;20432;-62
2022/10/21 08:25:23;;;;;;;14.60;8.67;;;7.40;99.90;;;;;;4175940;28;20059;-62
2022/10/21 08:27:24;;;;;;;14.73;9.17;;;7.50;99.90;;;;;;4180170;28;20114;-63
2022/10/21 08:29:25;;;;;;;12.40;7.90;;;7.60;99.90;;;;;;4176696;28;20405;-62
2022/10/21 08:31:26;;;;;;;14.10;6.83;;;7.90;99.90;;;;;;4176879;28;20045;-62
2022/10/21 08:33:28;;;;;;;17.30;7.13;;;8.00;99.90;;;;;;4184998;28;20586;-61
2022/10/21 08:35:30;;;;;;;14.53;7.13;;;8.00;99.90;;;;;;4176711;28;20037;-62
2022/10/21 08:37:31;;;;;;;13.30;7.10;;;8.00;99.90;;;;;;4177285;28;20106;-62
2022/10/21 08:39:32;;;;;;;17.33;7.07;;;8.10;99.90;;;;;;4176333;28;20087;-61
2022/10/21 08:41:38;;;;;;;12.93;6.83;;;8.20;99.90;;;;;;4176694;28;20045;-63
2022/10/21 08:43:39;;;;;;;12.13;7.07;;;8.40;99.90;;;;;;4176348;28;20032;-63
2022/10/21 08:45:49;;;;;;;11.07;6.87;;;8.50;99.90;;;;;;4177765;28;20083;-63
2022/10/21 08:47:54;;;;;;;8.18;5.55;;;8.70;99.90;;;;;;4178345;28;20041;-63
2022/10/21 08:50:12;;;;;;;11.27;6.07;;;8.60;99.90;;;;;;4177538;28;20033;-63
2022/10/21 08:52:40;;;;;;;9.77;5.60;;;8.70;99.90;;;;;;4179330;28;20186;-62
2022/10/21 08:55:01;;;;;;;14.87;6.37;;;8.90;99.90;;;;;;4180800;28;20087;-63
2022/10/21 08:57:02;;;;;;;12.40;6.33;;;9.00;99.90;;;;;;4184467;28;20036;-62
2022/10/21 08:59:16;;;;;;;11.30;5.40;;;9.20;99.90;;;;;;4172988;28;20029;-62
2022/10/21 09:01:36;;;;;;;13.00;7.80;;;9.20;99.90;;;;;;4177678;28;20083;-64
2022/10/21 09:04:15;;;;;;;10.45;6.10;;;9.40;99.90;;;;;;4181424;28;20110;-63
2022/10/21 09:06:50;;;;;;;22.90;7.40;;;9.40;99.90;;;;;;4148294;28;20045;-62
2022/10/21 09:09:05;;;;;;;10.97;5.73;;;9.50;99.90;;;;;;4178723;28;20457;-64
2022/10/21 09:11:12;;;;;;;9.83;5.67;;;9.50;99.90;;;;;;4179887;28;20051;-62
2022/10/21 09:13:28;;;;;;;11.10;5.77;;;9.50;99.90;;;;;;4179282;28;20070;-62
2022/10/21 09:15:59;;;;;;;11.13;5.53;;;9.60;99.90;;;;;;4180591;28;20017;-62
2022/10/21 09:18:06;;;;;;;9.33;5.73;;;9.80;99.90;;;;;;4179243;28;20025;-64
2022/10/21 09:20:28;;;;;;;10.60;5.17;;;9.80;99.90;;;;;;4180235;28;20029;-62
2022/10/21 09:22:36;;;;;;;10.13;4.97;;;10.00;99.90;;;;;;4178714;28;20032;-63
2022/10/21 09:25:31;;;;;;;12.20;5.47;;;10.20;99.90;;;;;;4180077;28;20082;-63
2022/10/21 09:27:32;;;;;;;8.97;4.23;;;10.20;99.90;;;;;;4175661;28;20041;-67
2022/10/21 09:29:36;;;;;;;9.60;5.10;;;10.30;99.90;;;;;;4179681;28;20082;-63
2022/10/21 09:31:38;;;;;;;8.60;5.30;;;10.30;99.90;;;;;;4177275;28;20053;-63
2022/10/21 09:33:45;;;;;;;8.97;4.20;;;10.40;99.90;;;;;;4180285;28;20082;-64
2022/10/21 09:35:52;;;;;;;10.40;5.60;;;10.40;99.90;;;;;;4179009;28;20036;-63
2022/10/21 09:38:09;;;;;;;9.13;4.60;;;10.50;99.90;;;;;;4179906;28;20025;-64
2022/10/21 09:40:19;;;;;;;6.27;5.07;;;10.50;99.90;;;;;;4177457;28;20554;-63
2022/10/21 09:42:20;;;;;;;10.95;5.35;;;10.60;99.90;;;;;;4179561;28;20045;-63
2022/10/21 09:44:22;;;;;;;8.43;5.10;;;10.60;99.90;;;;;;4178669;28;20126;-64
2022/10/21 09:46:24;;;;;;;6.83;4.30;;;10.70;99.90;;;;;;4179329;28;20082;-64
2022/10/21 09:48:45;;;;;;;12.33;6.07;;;10.90;99.90;;;;;;4178354;28;20110;-64
2022/10/21 09:50:48;;;;;;;;;;;11.00;99.90;;;;;;4179678;28;20025;-62
2022/10/21 09:52:58;;;;;;;9.63;4.50;;;11.10;99.90;;;;;;4177652;28;20337;-63
2022/10/21 09:54:59;;;;;;;8.48;4.20;;;11.10;99.90;;;;;;4179739;28;20440;-64
2022/10/21 09:57:04;;;;;;;9.50;4.40;;;11.10;99.90;;;;;;4178225;28;20051;-63
2022/10/21 09:59:06;;;;;;;9.30;4.40;;;11.10;99.90;;;;;;4179686;28;20485;-64
2022/10/21 10:01:08;;;;;;;10.50;4.57;;;11.10;99.90;;;;;;4194065;28;20094;-63
2022/10/21 10:03:09;;;;;;;7.60;4.30;;;11.20;99.90;;;;;;4195203;28;20098;-62
2022/10/21 10:05:34;;;;;;;6.63;4.03;;;11.30;99.90;;;;;;4194152;28;20075;-63
2022/10/21 10:07:35;;;;;;;6.67;3.80;;;11.40;99.90;;;;;;4196229;28;20471;-64
2022/10/21 10:09:44;;;;;;;7.03;4.63;;;11.40;99.90;;;;;;4176956;28;20103;-63
2022/10/21 10:12:04;;;;;;;10.20;4.80;;;11.40;99.90;;;;;;4195747;28;20029;-62
2022/10/21 10:14:26;;;;;;;27.00;5.00;;;11.40;99.90;;;;;;4176120;28;20033;-64
2022/10/21 10:16:30;;;;;;;6.67;4.97;;;11.40;99.90;;;;;;4195674;28;20037;-63
2022/10/21 10:18:31;;;;;;;12.07;4.83;;;11.40;99.90;;;;;;4193361;28;20113;-63
2022/10/21 10:20:32;;;;;;;14.13;5.03;;;11.40;99.90;;;;;;4176208;28;20075;-63
2022/10/21 10:22:40;;;;;;;11.43;5.27;;;11.40;99.90;;;;;;4177070;28;20024;-63
2022/10/21 10:24:43;;;;;;;7.73;3.90;;;11.50;99.90;;;;;;4194915;28;20033;-63
2022/10/21 10:26:45;;;;;;;7.90;4.37;;;11.60;99.90;;;;;;4181985;28;20146;-64
2022/10/21 10:29:09;;;;;;;10.17;4.20;;;11.60;99.90;;;;;;4180451;28;20036;-65
2022/10/21 10:31:10;;;;;;;9.97;4.10;;;11.70;99.90;;;;;;4186057;28;20106;-63
2022/10/21 10:33:25;;;;;;;6.90;4.50;;;11.60;99.90;;;;;;4185122;28;20485;-62
2022/10/21 10:35:32;;;;;;;8.93;4.37;;;11.60;99.90;;;;;;4161893;28;20072;-62
2022/10/21 10:37:36;;;;;;;7.90;3.90;;;11.60;99.90;;;;;;4192125;28;20035;-66
2022/10/21 10:39:38;;;;;;;8.13;4.53;;;11.60;99.90;;;;;;4179117;28;20465;-66
2022/10/21 10:41:45;;;;;;;9.10;4.07;;;11.60;99.90;;;;;;4178037;28;20067;-64
2022/10/21 10:43:53;;;;;;;8.13;4.77;;;11.70;99.90;;;;;;4183933;28;20037;-66